createdAt,value
2018-09-16T00:00:02.331Z,17.48
2018-09-16T00:00:28.461Z,17.51
2018-09-16T00:00:55.116Z,17.48
2018-09-16T00:01:21.403Z,17.59
2018-09-16T00:01:47.538Z,17.44
2018-09-16T00:02:13.888Z,17.44
2018-09-16T00:02:40.849Z,17.51
2018-09-16T00:03:07.146Z,17.44
2018-09-16T00:03:33.272Z,17.44
2018-09-16T00:03:59.882Z,17.38
2018-09-16T00:04:26.383Z,17.34
2018-09-16T00:04:52.531Z,17.27
2018-09-16T00:05:18.670Z,17.31
2018-09-16T00:05:45.197Z,17.31
2018-09-16T00:06:11.470Z,17.22
2018-09-16T00:06:37.604Z,17.22
2018-09-16T00:07:03.813Z,17.27
2018-09-16T00:07:30.212Z,17.29
2018-09-16T00:07:56.608Z,17.27
2018-09-16T00:08:22.743Z,17.23
2018-09-16T00:08:49.163Z,17.23
2018-09-16T00:09:15.646Z,17.2
2018-09-16T00:09:41.942Z,17.19
2018-09-16T00:10:08.740Z,17.24
2018-09-16T00:10:35.691Z,17.24
2018-09-16T00:11:02.181Z,17.23
2018-09-16T00:11:28.335Z,17.14
2018-09-16T00:11:55.885Z,17.2
2018-09-16T00:12:22.025Z,17.24
2018-09-16T00:12:48.438Z,17.23
2018-09-16T00:13:15.177Z,17.29
2018-09-16T00:13:41.341Z,17.26
2018-09-16T00:14:07.553Z,17.36
2018-09-16T00:14:33.737Z,17.34
2018-09-16T00:14:59.868Z,17.27
2018-09-16T00:15:26.094Z,17.3
2018-09-16T00:15:52.263Z,17.3
2018-09-16T00:16:18.399Z,17.33
2018-09-16T00:16:44.600Z,17.33
2018-09-16T00:17:11.039Z,17.31
2018-09-16T00:17:37.128Z,17.26
2018-09-16T00:18:03.353Z,17.27
2018-09-16T00:18:29.595Z,17.3
2018-09-16T00:18:55.717Z,17.27
2018-09-16T00:19:21.997Z,17.36
2018-09-16T00:19:48.159Z,17.34
2018-09-16T00:20:14.405Z,17.3
2018-09-16T00:20:40.644Z,17.31
2018-09-16T00:21:07.091Z,17.27
2018-09-16T00:21:33.162Z,17.24
2018-09-16T00:21:59.320Z,17.2
2018-09-16T00:22:25.554Z,17.2
2018-09-16T00:22:51.648Z,17.23
2018-09-16T00:23:18.039Z,17.14
2018-09-16T00:23:44.219Z,17.15
2018-09-16T00:24:10.408Z,17.22
2018-09-16T00:24:36.869Z,17.14
2018-09-16T00:25:03.090Z,17.16
2018-09-16T00:25:29.246Z,17.23
2018-09-16T00:25:55.609Z,17.19
2018-09-16T00:26:22.064Z,17.22
2018-09-16T00:26:48.463Z,17.14
2018-09-16T00:27:14.681Z,17.16
2018-09-16T00:27:40.950Z,17.2
2018-09-16T00:28:07.139Z,16.97
2018-09-16T00:28:33.273Z,16.97
2018-09-16T00:28:59.673Z,16.94
2018-09-16T00:29:26.103Z,16.81
2018-09-16T00:29:52.553Z,16.86
2018-09-16T00:30:18.758Z,16.83
2018-09-16T00:30:45.070Z,16.89
2018-09-16T00:31:11.205Z,16.83
2018-09-16T00:31:37.598Z,16.89
2018-09-16T00:32:03.983Z,16.79
2018-09-16T00:32:30.571Z,16.71
2018-09-16T00:32:56.951Z,16.74
2018-09-16T00:33:23.089Z,16.71
2018-09-16T00:33:49.253Z,16.72
2018-09-16T00:34:15.495Z,16.71
2018-09-16T00:34:42.052Z,16.78
2018-09-16T00:35:08.325Z,16.74
2018-09-16T00:35:34.447Z,16.76
2018-09-16T00:36:00.691Z,16.76
2018-09-16T00:36:26.830Z,16.81
2018-09-16T00:36:52.965Z,16.81
2018-09-16T00:37:19.135Z,16.79
2018-09-16T00:37:45.512Z,16.81
2018-09-16T00:38:12.110Z,16.84
2018-09-16T00:38:38.533Z,16.87
2018-09-16T00:39:04.682Z,16.83
2018-09-16T00:39:30.809Z,16.86
2018-09-16T00:39:57.086Z,16.83
2018-09-16T00:40:23.285Z,16.78
2018-09-16T00:40:49.535Z,16.86
2018-09-16T00:41:15.687Z,16.79
2018-09-16T00:41:41.826Z,16.81
2018-09-16T00:42:09.065Z,16.79
2018-09-16T00:42:35.273Z,16.76
2018-09-16T00:43:01.510Z,16.78
2018-09-16T00:43:27.738Z,16.75
2018-09-16T00:43:54.096Z,16.74
2018-09-16T00:44:20.299Z,16.78
2018-09-16T00:44:46.430Z,16.76
2018-09-16T00:45:12.605Z,16.71
2018-09-16T00:45:38.957Z,16.78
2018-09-16T00:46:05.079Z,16.87
2018-09-16T00:46:31.213Z,16.87
2018-09-16T00:46:57.704Z,16.84
2018-09-16T00:47:23.774Z,16.78
2018-09-16T00:47:49.985Z,16.83
2018-09-16T00:48:16.163Z,16.76
2018-09-16T00:48:42.294Z,16.79
2018-09-16T00:49:08.608Z,16.83
2018-09-16T00:49:34.814Z,16.76
2018-09-16T00:50:01.029Z,16.78
2018-09-16T00:50:27.515Z,16.79
2018-09-16T00:50:53.930Z,16.79
2018-09-16T00:51:20.110Z,16.75
2018-09-16T00:51:46.470Z,16.76
2018-09-16T00:52:12.803Z,16.81
2018-09-16T00:52:39.004Z,16.79
2018-09-16T00:53:05.569Z,16.83
2018-09-16T00:53:31.874Z,16.84
2018-09-16T00:53:58.205Z,16.76
2018-09-16T00:54:24.346Z,16.78
2018-09-16T00:54:50.717Z,16.81
2018-09-16T00:55:17.017Z,16.84
2018-09-16T00:55:43.329Z,16.83
2018-09-16T00:56:09.612Z,16.78
2018-09-16T00:56:35.748Z,16.76
2018-09-16T00:57:02.011Z,16.76
2018-09-16T00:57:28.184Z,16.76
2018-09-16T00:57:54.322Z,16.78
2018-09-16T00:58:20.490Z,16.78
2018-09-16T00:58:46.668Z,16.81
2018-09-16T00:59:12.802Z,16.76
2018-09-16T00:59:39.105Z,16.78
2018-09-16T01:00:05.526Z,16.74
2018-09-16T01:00:31.657Z,16.76
2018-09-16T01:00:57.790Z,16.81
2018-09-16T01:01:23.928Z,16.79
2018-09-16T01:01:50.262Z,16.78
2018-09-16T01:02:16.407Z,16.86
2018-09-16T01:02:42.722Z,16.81
2018-09-16T01:03:08.864Z,16.71
2018-09-16T01:03:34.991Z,16.74
2018-09-16T01:04:01.155Z,16.75
2018-09-16T01:04:27.312Z,16.78
2018-09-16T01:04:53.476Z,16.76
2018-09-16T01:05:19.849Z,16.78
2018-09-16T01:05:46.146Z,16.83
2018-09-16T01:06:12.345Z,16.76
2018-09-16T01:06:38.477Z,16.79
2018-09-16T01:07:04.619Z,16.76
2018-09-16T01:07:30.746Z,16.81
2018-09-16T01:07:56.973Z,16.75
2018-09-16T01:08:23.447Z,16.79
2018-09-16T01:08:50.172Z,16.86
2018-09-16T01:09:16.325Z,16.72
2018-09-16T01:09:42.635Z,16.71
2018-09-16T01:10:09.026Z,16.72
2018-09-16T01:10:35.164Z,16.71
2018-09-16T01:11:01.300Z,16.75
2018-09-16T01:11:27.427Z,16.75
2018-09-16T01:11:53.562Z,16.66
2018-09-16T01:12:19.897Z,16.72
2018-09-16T01:12:46.130Z,16.69
2018-09-16T01:13:12.265Z,16.72
2018-09-16T01:13:38.545Z,16.69
2018-09-16T01:14:04.727Z,16.71
2018-09-16T01:14:30.997Z,16.66
2018-09-16T01:14:57.166Z,16.6
2018-09-16T01:15:23.316Z,16.61
2018-09-16T01:15:49.452Z,16.6
2018-09-16T01:16:15.666Z,16.66
2018-09-16T01:16:41.965Z,16.6
2018-09-16T01:17:08.142Z,16.74
2018-09-16T01:17:34.309Z,16.64
2018-09-16T01:18:00.468Z,16.75
2018-09-16T01:18:26.798Z,16.65
2018-09-16T01:18:52.962Z,16.61
2018-09-16T01:19:19.141Z,16.47
2018-09-16T01:19:45.348Z,16.51
2018-09-16T01:20:11.718Z,16.61
2018-09-16T01:20:37.820Z,16.58
2018-09-16T01:21:04.257Z,16.58
2018-09-16T01:21:30.448Z,16.61
2018-09-16T01:21:56.808Z,16.6
2018-09-16T01:22:22.907Z,16.56
2018-09-16T01:22:49.197Z,16.6
2018-09-16T01:23:15.262Z,16.61
2018-09-16T01:23:41.539Z,16.51
2018-09-16T01:24:07.666Z,16.43
2018-09-16T01:24:33.967Z,16.53
2018-09-16T01:25:00.162Z,16.47
2018-09-16T01:25:26.578Z,16.5
2018-09-16T01:25:52.645Z,16.49
2018-09-16T01:26:19.022Z,16.46
2018-09-16T01:26:45.142Z,16.47
2018-09-16T01:27:11.655Z,16.43
2018-09-16T01:27:37.992Z,16.49
2018-09-16T01:28:04.116Z,16.57
2018-09-16T01:28:30.325Z,16.49
2018-09-16T01:28:56.754Z,16.46
2018-09-16T01:29:23.250Z,16.43
2018-09-16T01:29:49.379Z,16.54
2018-09-16T01:30:15.534Z,16.42
2018-09-16T01:30:41.934Z,16.46
2018-09-16T01:31:08.070Z,16.47
2018-09-16T01:31:34.395Z,16.43
2018-09-16T01:32:00.511Z,16.43
2018-09-16T01:32:26.643Z,16.39
2018-09-16T01:32:52.925Z,16.47
2018-09-16T01:33:19.005Z,16.42
2018-09-16T01:33:45.251Z,16.33
2018-09-16T01:34:11.512Z,16.35
2018-09-16T01:34:37.961Z,16.39
2018-09-16T01:35:04.382Z,16.46
2018-09-16T01:35:30.511Z,16.5
2018-09-16T01:35:56.760Z,16.38
2018-09-16T01:36:22.994Z,16.46
2018-09-16T01:36:49.200Z,16.43
2018-09-16T01:37:15.347Z,16.53
2018-09-16T01:37:41.734Z,16.39
2018-09-16T01:38:08.028Z,16.43
2018-09-16T01:38:34.628Z,16.36
2018-09-16T01:39:00.803Z,16.26
2018-09-16T01:39:26.925Z,16.32
2018-09-16T01:39:53.090Z,16.35
2018-09-16T01:40:19.230Z,16.29
2018-09-16T01:40:45.471Z,16.32
2018-09-16T01:41:11.740Z,16.24
2018-09-16T01:41:37.905Z,16.26
2018-09-16T01:42:04.458Z,16.28
2018-09-16T01:42:30.612Z,16.17
2018-09-16T01:42:56.791Z,16.23
2018-09-16T01:43:22.975Z,16.16
2018-09-16T01:43:49.110Z,16.12
2018-09-16T01:44:15.343Z,16.16
2018-09-16T01:44:41.555Z,16.16
2018-09-16T01:45:07.797Z,16.08
2018-09-16T01:45:34.010Z,15.98
2018-09-16T01:46:00.304Z,16.01
2018-09-16T01:46:26.625Z,16.08
2018-09-16T01:46:52.787Z,15.95
2018-09-16T01:47:19.068Z,16
2018-09-16T01:47:45.322Z,15.95
2018-09-16T01:48:11.496Z,15.82
2018-09-16T01:48:38.183Z,15.9
2018-09-16T01:49:04.315Z,15.91
2018-09-16T01:49:30.642Z,15.88
2018-09-16T01:49:57.579Z,15.97
2018-09-16T01:50:24.147Z,15.98
2018-09-16T01:50:50.293Z,15.95
2018-09-16T01:51:16.532Z,15.94
2018-09-16T01:51:42.761Z,15.86
2018-09-16T01:52:09.035Z,15.94
2018-09-16T01:52:35.212Z,15.97
2018-09-16T01:53:01.422Z,15.86
2018-09-16T01:53:27.649Z,16
2018-09-16T01:53:53.844Z,15.95
2018-09-16T01:54:20.083Z,15.98
2018-09-16T01:54:46.222Z,16.04
2018-09-16T01:55:12.394Z,16.01
2018-09-16T01:55:38.582Z,15.92
2018-09-16T01:56:04.668Z,15.98
2018-09-16T01:56:30.985Z,16
2018-09-16T01:56:57.134Z,15.95
2018-09-16T01:57:23.288Z,16.1
2018-09-16T01:57:49.469Z,16.02
2018-09-16T01:58:15.958Z,16.01
2018-09-16T01:58:42.136Z,16.04
2018-09-16T01:59:09.121Z,16.04
2018-09-16T01:59:35.281Z,16
2018-09-16T02:00:01.459Z,15.92
2018-09-16T02:00:27.645Z,15.83
2018-09-16T02:00:53.800Z,15.9
2018-09-16T02:01:20.123Z,15.88
2018-09-16T02:01:46.253Z,15.86
2018-09-16T02:02:12.507Z,15.82
2018-09-16T02:02:38.827Z,15.9
2018-09-16T02:03:05.349Z,15.95
2018-09-16T02:03:31.470Z,15.83
2018-09-16T02:03:57.693Z,15.9
2018-09-16T02:04:23.877Z,15.91
2018-09-16T02:05:46.045Z,15.76
2018-09-16T02:06:12.436Z,15.64
2018-09-16T02:06:38.598Z,15.59
2018-09-16T02:07:04.737Z,15.57
2018-09-16T02:07:30.871Z,15.55
2018-09-16T02:07:57.021Z,15.64
2018-09-16T02:08:23.151Z,15.62
2018-09-16T02:08:49.291Z,15.59
2018-09-16T02:09:15.522Z,15.55
2018-09-16T02:09:41.687Z,15.49
2018-09-16T02:10:07.861Z,15.54
2018-09-16T02:10:34.100Z,15.46
2018-09-16T02:11:00.234Z,15.44
2018-09-16T02:11:26.509Z,15.37
2018-09-16T02:11:53.100Z,15.39
2018-09-16T02:12:19.287Z,15.43
2018-09-16T02:12:45.502Z,15.52
2018-09-16T02:13:11.632Z,15.43
2018-09-16T02:13:37.764Z,15.52
2018-09-16T02:14:03.924Z,15.55
2018-09-16T02:14:30.166Z,15.42
2018-09-16T02:14:56.819Z,15.47
2018-09-16T02:15:23.213Z,15.52
2018-09-16T02:15:49.402Z,15.36
2018-09-16T02:16:15.559Z,15.4
2018-09-16T02:16:41.697Z,15.42
2018-09-16T02:17:08.166Z,15.58
2018-09-16T02:17:34.578Z,15.42
2018-09-16T02:18:00.775Z,15.47
2018-09-16T02:18:26.970Z,15.55
2018-09-16T02:18:53.435Z,15.46
2018-09-16T02:19:19.544Z,15.52
2018-09-16T02:19:45.705Z,15.57
2018-09-16T02:20:11.890Z,15.58
2018-09-16T02:20:38.316Z,15.51
2018-09-16T02:21:04.635Z,15.54
2018-09-16T02:21:30.775Z,15.51
2018-09-16T02:21:57.402Z,15.43
2018-09-16T02:22:23.493Z,15.44
2018-09-16T02:22:49.629Z,15.51
2018-09-16T02:23:15.849Z,15.47
2018-09-16T02:23:42.020Z,15.44
2018-09-16T02:24:08.398Z,15.43
2018-09-16T02:24:34.876Z,15.42
2018-09-16T02:25:01.175Z,15.4
2018-09-16T02:25:27.720Z,15.44
2018-09-16T02:25:53.853Z,15.46
2018-09-16T02:26:20.089Z,15.44
2018-09-16T02:26:46.284Z,15.46
2018-09-16T02:27:12.525Z,15.37
2018-09-16T02:27:38.668Z,15.42
2018-09-16T02:28:05.027Z,15.52
2018-09-16T02:28:31.326Z,15.44
2018-09-16T02:28:57.539Z,15.46
2018-09-16T02:29:23.669Z,15.51
2018-09-16T02:29:49.847Z,15.49
2018-09-16T02:30:16.008Z,15.39
2018-09-16T02:30:42.233Z,15.46
2018-09-16T02:31:08.390Z,15.46
2018-09-16T02:31:34.600Z,15.43
2018-09-16T02:32:00.816Z,15.37
2018-09-16T02:32:27.018Z,15.36
2018-09-16T02:32:53.170Z,15.4
2018-09-16T02:33:19.596Z,15.28
2018-09-16T02:33:45.739Z,15.33
2018-09-16T02:34:12.203Z,15.42
2018-09-16T02:34:38.737Z,15.29
2018-09-16T02:35:04.917Z,15.25
2018-09-16T02:35:31.389Z,15.19
2018-09-16T02:35:57.544Z,15.11
2018-09-16T02:36:23.771Z,15.27
2018-09-16T02:36:50.185Z,15.25
2018-09-16T02:37:16.875Z,15.29
2018-09-16T02:37:43.099Z,15.19
2018-09-16T02:38:09.871Z,15.28
2018-09-16T02:38:36.047Z,15.28
2018-09-16T02:39:02.204Z,15.36
2018-09-16T02:39:28.562Z,15.35
2018-09-16T02:39:55.171Z,15.35
2018-09-16T02:40:21.505Z,15.29
2018-09-16T02:40:47.719Z,15.25
2018-09-16T02:41:14.425Z,15.15
2018-09-16T02:41:40.512Z,15.18
2018-09-16T02:42:06.640Z,15.24
2018-09-16T02:42:32.803Z,15.11
2018-09-16T02:42:58.963Z,15.11
2018-09-16T02:43:25.280Z,15.1
2018-09-16T02:43:51.383Z,15.14
2018-09-16T02:44:18.736Z,15.09
2018-09-16T02:44:45.379Z,15.25
2018-09-16T02:45:11.880Z,15.1
2018-09-16T02:45:38.090Z,15.19
2018-09-16T02:46:04.364Z,15.28
2018-09-16T02:46:30.547Z,15.35
2018-09-16T02:46:56.860Z,15.25
2018-09-16T02:47:22.949Z,15.15
2018-09-16T02:47:49.136Z,15.1
2018-09-16T02:48:15.293Z,15.18
2018-09-16T02:48:41.890Z,15.06
2018-09-16T02:49:08.448Z,15.07
2018-09-16T02:49:34.640Z,15.11
2018-09-16T02:50:01.262Z,15.1
2018-09-16T02:50:27.570Z,15.06
2018-09-16T02:50:53.746Z,15.06
2018-09-16T02:51:19.996Z,15.07
2018-09-16T02:51:46.120Z,15.04
2018-09-16T02:52:12.303Z,14.79
2018-09-16T02:52:38.459Z,14.82
2018-09-16T02:53:04.707Z,14.91
2018-09-16T02:53:30.837Z,14.96
2018-09-16T02:53:56.991Z,14.97
2018-09-16T02:54:23.854Z,15.06
2018-09-16T02:54:49.991Z,14.99
2018-09-16T02:55:16.154Z,14.99
2018-09-16T02:55:42.287Z,15.04
2018-09-16T02:56:08.421Z,15.06
2018-09-16T02:56:35.248Z,15.07
2018-09-16T02:57:01.802Z,15.06
2018-09-16T02:57:27.884Z,14.99
2018-09-16T02:57:54.191Z,15.04
2018-09-16T02:58:20.311Z,14.97
2018-09-16T02:58:46.448Z,14.99
2018-09-16T02:59:12.631Z,14.99
2018-09-16T02:59:38.782Z,14.94
2018-09-16T03:00:04.918Z,15
2018-09-16T03:00:31.111Z,15.07
2018-09-16T03:00:57.276Z,15
2018-09-16T03:01:23.403Z,15.09
2018-09-16T03:01:49.567Z,15.03
2018-09-16T03:02:16.163Z,14.86
2018-09-16T03:02:42.350Z,14.88
2018-09-16T03:03:08.479Z,14.84
2018-09-16T03:03:34.613Z,14.84
2018-09-16T03:04:00.789Z,14.81
2018-09-16T03:04:26.925Z,14.91
2018-09-16T03:04:53.133Z,14.73
2018-09-16T03:05:19.265Z,14.69
2018-09-16T03:05:45.458Z,14.68
2018-09-16T03:06:11.925Z,14.73
2018-09-16T03:06:38.201Z,14.73
2018-09-16T03:07:04.332Z,14.73
2018-09-16T03:07:30.554Z,14.82
2018-09-16T03:07:56.707Z,14.85
2018-09-16T03:08:22.959Z,14.73
2018-09-16T03:08:49.510Z,14.73
2018-09-16T03:09:15.700Z,14.72
2018-09-16T03:09:42.068Z,14.72
2018-09-16T03:10:08.205Z,14.65
2018-09-16T03:10:34.331Z,14.81
2018-09-16T03:11:00.548Z,14.65
2018-09-16T03:11:26.851Z,14.65
2018-09-16T03:11:53.210Z,14.69
2018-09-16T03:12:19.400Z,14.7
2018-09-16T03:12:45.502Z,14.66
2018-09-16T03:13:11.663Z,14.7
2018-09-16T03:13:38.063Z,14.68
2018-09-16T03:14:04.322Z,14.65
2018-09-16T03:14:30.706Z,14.63
2018-09-16T03:14:56.851Z,14.6
2018-09-16T03:15:23.033Z,14.73
2018-09-16T03:15:49.320Z,14.68
2018-09-16T03:16:15.422Z,14.69
2018-09-16T03:16:42.113Z,14.78
2018-09-16T03:17:08.309Z,14.88
2018-09-16T03:17:34.662Z,14.72
2018-09-16T03:18:00.753Z,14.81
2018-09-16T03:18:27.266Z,14.73
2018-09-16T03:18:53.517Z,14.81
2018-09-16T03:19:19.617Z,14.68
2018-09-16T03:19:45.779Z,14.69
2018-09-16T03:20:11.910Z,14.63
2018-09-16T03:20:38.064Z,14.68
2018-09-16T03:21:04.461Z,14.72
2018-09-16T03:21:31.037Z,14.77
2018-09-16T03:21:57.162Z,14.78
2018-09-16T03:22:23.326Z,14.72
2018-09-16T03:22:49.561Z,14.81
2018-09-16T03:23:15.966Z,14.63
2018-09-16T03:23:42.360Z,14.62
2018-09-16T03:24:08.532Z,14.55
2018-09-16T03:24:34.969Z,14.65
2018-09-16T03:25:01.101Z,14.6
2018-09-16T03:25:27.302Z,14.68
2018-09-16T03:25:53.421Z,14.73
2018-09-16T03:26:19.558Z,14.66
2018-09-16T03:26:45.789Z,14.7
2018-09-16T03:27:11.892Z,14.68
2018-09-16T03:27:38.124Z,14.72
2018-09-16T03:28:04.609Z,14.72
2018-09-16T03:28:30.917Z,14.65
2018-09-16T03:28:57.426Z,14.78
2018-09-16T03:29:23.589Z,14.65
2018-09-16T03:29:49.828Z,14.73
2018-09-16T03:30:15.985Z,14.73
2018-09-16T03:30:42.183Z,14.65
2018-09-16T03:31:08.736Z,14.69
2018-09-16T03:31:35.114Z,14.69
2018-09-16T03:32:01.364Z,14.66
2018-09-16T03:32:27.565Z,14.7
2018-09-16T03:32:53.924Z,14.66
2018-09-16T03:33:20.413Z,14.63
2018-09-16T03:33:46.572Z,14.79
2018-09-16T03:34:12.983Z,14.73
2018-09-16T03:34:39.129Z,14.73
2018-09-16T03:35:05.312Z,14.66
2018-09-16T03:35:31.609Z,14.78
2018-09-16T03:35:57.911Z,14.7
2018-09-16T03:36:23.974Z,14.85
2018-09-16T03:36:50.108Z,14.82
2018-09-16T03:37:16.286Z,14.79
2018-09-16T03:37:42.450Z,14.73
2018-09-16T03:38:08.577Z,14.84
2018-09-16T03:38:34.750Z,14.85
2018-09-16T03:39:01.076Z,14.85
2018-09-16T03:39:27.158Z,14.86
2018-09-16T03:39:53.321Z,14.85
2018-09-16T03:40:19.617Z,14.79
2018-09-16T03:40:45.808Z,14.89
2018-09-16T03:41:11.905Z,14.91
2018-09-16T03:41:38.044Z,14.89
2018-09-16T03:42:04.316Z,14.86
2018-09-16T03:42:30.443Z,14.86
2018-09-16T03:42:56.597Z,14.94
2018-09-16T03:43:22.754Z,14.91
2018-09-16T03:43:49.223Z,14.88
2018-09-16T03:44:15.414Z,14.84
2018-09-16T03:44:42.419Z,14.91
2018-09-16T03:45:08.707Z,14.91
2018-09-16T03:45:34.852Z,14.85
2018-09-16T03:46:01.205Z,14.91
2018-09-16T03:46:27.505Z,14.79
2018-09-16T03:46:53.795Z,14.96
2018-09-16T03:47:20.152Z,14.99
2018-09-16T03:47:46.354Z,14.91
2018-09-16T03:48:12.588Z,14.85
2018-09-16T03:48:38.693Z,14.88
2018-09-16T03:49:04.940Z,14.89
2018-09-16T03:49:31.119Z,14.85
2018-09-16T03:49:57.474Z,14.84
2018-09-16T03:50:23.749Z,14.81
2018-09-16T03:50:49.995Z,14.69
2018-09-16T03:51:16.157Z,14.66
2018-09-16T03:51:42.917Z,14.68
2018-09-16T03:52:09.024Z,14.66
2018-09-16T03:52:35.154Z,14.65
2018-09-16T03:53:01.316Z,14.66
2018-09-16T03:53:27.610Z,14.54
2018-09-16T03:53:53.763Z,14.6
2018-09-16T03:54:19.961Z,14.6
2018-09-16T03:54:46.140Z,14.63
2018-09-16T03:55:12.416Z,14.63
2018-09-16T03:55:39.481Z,14.68
2018-09-16T03:56:05.659Z,14.73
2018-09-16T03:56:31.792Z,14.78
2018-09-16T03:56:57.936Z,14.77
2018-09-16T03:57:24.261Z,14.69
2018-09-16T03:57:50.482Z,14.78
2018-09-16T03:58:16.850Z,14.84
2018-09-16T03:58:43.296Z,14.85
2018-09-16T03:59:09.716Z,14.77
2018-09-16T03:59:35.906Z,14.82
2018-09-16T04:00:02.337Z,14.84
2018-09-16T04:00:28.467Z,14.81
2018-09-16T04:00:54.855Z,14.81
2018-09-16T04:01:21.015Z,14.88
2018-09-16T04:01:47.146Z,14.85
2018-09-16T04:02:13.714Z,14.78
2018-09-16T04:02:39.845Z,14.7
2018-09-16T04:03:06.237Z,14.73
2018-09-16T04:03:32.461Z,14.72
2018-09-16T04:03:58.637Z,14.7
2018-09-16T04:04:24.819Z,14.86
2018-09-16T04:04:50.968Z,14.79
2018-09-16T04:05:17.158Z,14.84
2018-09-16T04:05:43.517Z,14.84
2018-09-16T04:06:09.925Z,14.82
2018-09-16T04:06:36.053Z,14.85
2018-09-16T04:07:02.337Z,14.81
2018-09-16T04:07:29.066Z,14.82
2018-09-16T04:07:55.263Z,14.82
2018-09-16T04:08:21.588Z,14.82
2018-09-16T04:08:47.794Z,14.91
2018-09-16T04:09:14.079Z,14.86
2018-09-16T04:09:40.271Z,14.81
2018-09-16T04:10:06.545Z,14.85
2018-09-16T04:10:32.882Z,14.82
2018-09-16T04:10:59.096Z,14.81
2018-09-16T04:11:25.473Z,14.81
2018-09-16T04:11:51.670Z,14.82
2018-09-16T04:12:17.799Z,14.85
2018-09-16T04:12:44.234Z,14.84
2018-09-16T04:13:10.366Z,14.89
2018-09-16T04:13:36.496Z,14.85
2018-09-16T04:14:02.806Z,14.89
2018-09-16T04:14:29.280Z,14.85
2018-09-16T04:14:55.502Z,14.89
2018-09-16T04:15:21.949Z,14.85
2018-09-16T04:15:48.281Z,14.88
2018-09-16T04:16:15.253Z,14.91
2018-09-16T04:16:41.616Z,14.86
2018-09-16T04:17:07.835Z,14.89
2018-09-16T04:17:34.048Z,14.91
2018-09-16T04:18:00.214Z,14.97
2018-09-16T04:18:26.531Z,14.96
2018-09-16T04:18:52.886Z,14.96
2018-09-16T04:19:19.193Z,15.03
2018-09-16T04:19:45.420Z,14.96
2018-09-16T04:20:11.731Z,15.02
2018-09-16T04:20:38.002Z,14.99
2018-09-16T04:21:04.688Z,15.02
2018-09-16T04:21:31.282Z,14.97
2018-09-16T04:21:57.544Z,15
2018-09-16T04:22:23.762Z,15.02
2018-09-16T04:22:50.106Z,15
2018-09-16T04:23:16.272Z,14.92
2018-09-16T04:23:42.406Z,14.85
2018-09-16T04:24:08.537Z,14.85
2018-09-16T04:24:34.714Z,14.73
2018-09-16T04:25:00.849Z,14.81
2018-09-16T04:25:26.986Z,14.77
2018-09-16T04:25:53.154Z,14.77
2018-09-16T04:26:19.299Z,14.82
2018-09-16T04:26:45.432Z,14.86
2018-09-16T04:27:11.611Z,14.81
2018-09-16T04:27:37.759Z,14.86
2018-09-16T04:28:03.904Z,14.79
2018-09-16T04:28:30.066Z,14.73
2018-09-16T04:28:56.197Z,14.81
2018-09-16T04:29:22.400Z,14.73
2018-09-16T04:29:48.559Z,14.78
2018-09-16T04:30:14.701Z,14.73
2018-09-16T04:30:40.826Z,14.65
2018-09-16T04:31:07.010Z,14.65
2018-09-16T04:31:33.165Z,14.72
2018-09-16T04:31:59.303Z,14.68
2018-09-16T04:32:25.461Z,14.6
2018-09-16T04:32:51.628Z,14.62
2018-09-16T04:33:17.821Z,14.69
2018-09-16T04:33:43.934Z,14.59
2018-09-16T04:34:10.087Z,14.58
2018-09-16T04:34:36.216Z,14.62
2018-09-16T04:35:02.363Z,14.63
2018-09-16T04:35:28.516Z,14.58
2018-09-16T04:35:54.647Z,14.68
2018-09-16T04:36:20.782Z,14.65
2018-09-16T04:36:46.909Z,14.66
2018-09-16T04:37:13.045Z,14.7
2018-09-16T04:37:39.201Z,14.7
2018-09-16T04:38:05.336Z,14.66
2018-09-16T04:38:31.474Z,14.63
2018-09-16T04:38:57.607Z,14.62
2018-09-16T04:39:23.741Z,14.66
2018-09-16T04:39:49.887Z,14.69
2018-09-16T04:40:16.013Z,14.59
2018-09-16T04:40:42.177Z,14.59
2018-09-16T04:41:08.334Z,14.6
2018-09-16T04:41:34.494Z,14.65
2018-09-16T04:42:00.625Z,14.65
2018-09-16T04:42:26.773Z,14.66
2018-09-16T04:42:52.955Z,14.63
2018-09-16T04:43:19.111Z,14.7
2018-09-16T04:43:45.247Z,14.65
2018-09-16T04:44:11.398Z,14.65
2018-09-16T04:44:37.522Z,14.63
2018-09-16T04:45:03.649Z,14.59
2018-09-16T04:45:29.785Z,14.55
2018-09-16T04:45:55.915Z,14.66
2018-09-16T04:46:22.074Z,14.55
2018-09-16T04:46:48.209Z,14.65
2018-09-16T04:47:14.370Z,14.58
2018-09-16T04:47:40.505Z,14.58
2018-09-16T04:48:06.665Z,14.53
2018-09-16T04:48:32.798Z,14.51
2018-09-16T04:48:58.926Z,14.47
2018-09-16T04:49:25.059Z,14.51
2018-09-16T04:49:51.266Z,14.53
2018-09-16T04:50:17.376Z,14.5
2018-09-16T04:50:43.509Z,14.53
2018-09-16T04:51:09.678Z,14.55
2018-09-16T04:51:35.819Z,14.45
2018-09-16T04:52:01.982Z,14.45
2018-09-16T04:52:28.131Z,14.58
2018-09-16T04:52:54.311Z,14.45
2018-09-16T04:53:20.463Z,14.32
2018-09-16T04:53:46.623Z,14.32
2018-09-16T04:54:12.757Z,14.43
2018-09-16T04:54:38.886Z,14.44
2018-09-16T04:55:05.024Z,14.44
2018-09-16T04:55:31.156Z,14.37
2018-09-16T04:55:57.287Z,14.33
2018-09-16T04:56:23.419Z,14.48
2018-09-16T04:56:49.575Z,14.41
2018-09-16T04:57:15.727Z,14.41
2018-09-16T04:57:41.858Z,14.48
2018-09-16T04:58:07.992Z,14.4
2018-09-16T04:58:34.120Z,14.54
2018-09-16T04:59:00.255Z,14.41
2018-09-16T04:59:26.394Z,14.45
2018-09-16T04:59:52.527Z,14.48
2018-09-16T05:00:18.652Z,14.48
2018-09-16T05:00:44.783Z,14.54
2018-09-16T05:01:10.972Z,14.4
2018-09-16T05:01:37.072Z,14.43
2018-09-16T05:02:03.201Z,14.45
2018-09-16T05:02:29.364Z,14.45
2018-09-16T05:02:55.493Z,14.5
2018-09-16T05:03:21.650Z,14.41
2018-09-16T05:03:47.779Z,14.45
2018-09-16T05:04:13.914Z,14.43
2018-09-16T05:04:40.083Z,14.44
2018-09-16T05:05:06.211Z,14.47
2018-09-16T05:05:32.369Z,14.4
2018-09-16T05:05:58.505Z,14.44
2018-09-16T05:06:24.638Z,14.47
2018-09-16T05:06:50.777Z,14.41
2018-09-16T05:07:16.915Z,14.5
2018-09-16T05:07:43.073Z,14.53
2018-09-16T05:08:09.206Z,14.47
2018-09-16T05:08:35.342Z,14.51
2018-09-16T05:09:01.474Z,14.47
2018-09-16T05:09:27.604Z,14.44
2018-09-16T05:09:53.742Z,14.47
2018-09-16T05:10:19.902Z,14.47
2018-09-16T05:10:46.023Z,14.45
2018-09-16T05:11:12.152Z,14.4
2018-09-16T05:11:38.294Z,14.23
2018-09-16T05:12:04.452Z,14.28
2018-09-16T05:12:30.605Z,14.28
2018-09-16T05:12:56.737Z,14.32
2018-09-16T05:13:22.899Z,14.2
2018-09-16T05:13:49.030Z,14.26
2018-09-16T05:14:15.161Z,14.36
2018-09-16T05:14:41.294Z,14.32
2018-09-16T05:15:07.454Z,14.32
2018-09-16T05:15:33.590Z,14.29
2018-09-16T05:15:59.747Z,14.29
2018-09-16T05:16:25.881Z,14.33
2018-09-16T05:16:52.039Z,14.37
2018-09-16T05:17:18.178Z,14.33
2018-09-16T05:17:44.309Z,14.32
2018-09-16T05:18:10.440Z,14.3
2018-09-16T05:18:36.577Z,14.14
2018-09-16T05:19:02.713Z,14.25
2018-09-16T05:19:28.867Z,14.25
2018-09-16T05:19:55.028Z,14.22
2018-09-16T05:20:21.159Z,14.28
2018-09-16T05:20:47.306Z,14.25
2018-09-16T05:21:13.448Z,14.28
2018-09-16T05:21:39.608Z,14.3
2018-09-16T05:22:05.741Z,14.32
2018-09-16T05:22:31.939Z,14.32
2018-09-16T05:22:58.031Z,14.18
2018-09-16T05:23:24.170Z,14.26
2018-09-16T05:23:50.298Z,14.26
2018-09-16T05:24:16.434Z,14.15
2018-09-16T05:24:42.563Z,14.12
2018-09-16T05:25:08.704Z,14.12
2018-09-16T05:25:34.830Z,14.28
2018-09-16T05:26:00.960Z,14.23
2018-09-16T05:26:27.120Z,14.26
2018-09-16T05:26:53.250Z,14.28
2018-09-16T05:27:19.408Z,14.36
2018-09-16T05:27:45.547Z,14.37
2018-09-16T05:28:11.686Z,14.35
2018-09-16T05:28:37.836Z,14.36
2018-09-16T05:29:04.015Z,14.35
2018-09-16T05:29:30.169Z,14.48
2018-09-16T05:29:56.356Z,14.35
2018-09-16T05:30:22.484Z,14.4
2018-09-16T05:30:48.621Z,14.35
2018-09-16T05:31:14.817Z,14.29
2018-09-16T05:31:40.890Z,14.33
2018-09-16T05:32:07.023Z,14.35
2018-09-16T05:32:33.161Z,14.45
2018-09-16T05:32:59.297Z,14.5
2018-09-16T05:33:25.430Z,14.45
2018-09-16T05:33:51.568Z,14.44
2018-09-16T05:34:17.725Z,14.47
2018-09-16T05:34:43.854Z,14.47
2018-09-16T05:35:09.991Z,14.47
2018-09-16T05:35:36.129Z,14.51
2018-09-16T05:36:02.264Z,14.51
2018-09-16T05:36:28.403Z,14.5
2018-09-16T05:36:54.537Z,14.48
2018-09-16T05:37:20.674Z,14.47
2018-09-16T05:37:46.820Z,14.43
2018-09-16T05:38:12.951Z,14.4
2018-09-16T05:38:39.073Z,14.41
2018-09-16T05:39:05.232Z,14.36
2018-09-16T05:39:31.367Z,14.32
2018-09-16T05:39:57.500Z,14.32